Time;durP1;ratioP1;P1;durP2;ratioP2;P2;SDS_P1;SDS_P2;PMS_P1;PMS_P2;Temp;Humidity;BMP_temperature;BMP_pressure;BME280_temperature;BME280_humidity;BME280_pressure;Samples;Min_cycle;Max_cycle;Signal;HPM_P1;HPM_P2
2022/11/25 00:01:23;;;;;;;23.77;10.05;;;5.40;99.90;;;;;;5002498;28;20053;-71
2022/11/25 00:03:49;;;;;;;19.83;9.50;;;5.40;99.90;;;;;;5008544;28;20443;-71
2022/11/25 00:06:18;;;;;;;21.90;9.68;;;5.30;99.90;;;;;;5008414;28;20121;-71
2022/11/25 00:08:44;;;;;;;16.30;9.60;;;5.30;99.90;;;;;;5002376;28;20050;-71
2022/11/25 00:11:10;;;;;;;20.08;9.23;;;5.30;99.90;;;;;;5007761;28;20052;-71
2022/11/25 00:13:36;;;;;;;28.85;10.32;;;5.30;99.90;;;;;;5004843;28;20054;-71
2022/11/25 00:16:03;;;;;;;18.02;9.30;;;5.20;99.90;;;;;;5005735;28;20736;-71
2022/11/25 00:18:30;;;;;;;18.33;8.98;;;5.30;99.90;;;;;;5005549;28;20042;-71
2022/11/25 00:20:56;;;;;;;33.25;16.13;;;5.30;99.90;;;;;;5006135;28;20054;-71
2022/11/25 00:23:22;;;;;;;23.92;11.57;;;5.30;99.90;;;;;;4989525;28;20387;-70
2022/11/25 00:25:48;;;;;;;20.33;11.38;;;5.30;99.90;;;;;;5007762;28;20045;-71
2022/11/25 00:28:14;;;;;;;32.47;14.65;;;5.30;99.90;;;;;;4989147;28;20073;-71
2022/11/25 00:30:41;;;;;;;16.67;9.02;;;5.40;99.90;;;;;;5006682;28;20530;-71
2022/11/25 00:33:06;;;;;;;16.10;9.27;;;5.30;99.90;;;;;;5007479;28;20071;-71
2022/11/25 00:35:34;;;;;;;19.20;9.20;;;5.30;99.90;;;;;;5004635;28;20042;-71
2022/11/25 00:38:00;;;;;;;17.23;9.13;;;5.30;99.90;;;;;;5019988;28;20490;-71
2022/11/25 00:40:25;;;;;;;15.52;7.53;;;5.30;99.90;;;;;;5002839;28;20042;-71
2022/11/25 00:45:35;;;;;;;18.42;9.25;;;5.30;99.90;;;;;;5005593;28;20042;-71
2022/11/25 00:48:02;;;;;;;16.65;8.55;;;5.20;99.90;;;;;;5014361;28;20057;-71
2022/11/25 00:50:28;;;;;;;17.17;9.45;;;5.10;99.90;;;;;;5007244;28;20128;-70
2022/11/25 00:52:53;;;;;;;17.67;9.05;;;5.10;99.90;;;;;;5006544;28;20124;-70
2022/11/25 00:55:19;;;;;;;20.00;9.32;;;5.00;99.90;;;;;;5006142;28;20148;-70
2022/11/25 00:57:45;;;;;;;16.77;8.23;;;5.10;99.90;;;;;;5004996;28;20041;-70
2022/11/25 01:00:11;;;;;;;16.33;8.98;;;5.00;99.90;;;;;;5007173;28;20045;-70
2022/11/25 01:02:37;;;;;;;18.38;8.50;;;5.10;99.90;;;;;;5003526;28;20050;-70
2022/11/25 01:05:03;;;;;;;16.58;8.23;;;5.10;99.90;;;;;;5036339;28;20135;-70
2022/11/25 01:07:29;;;;;;;16.45;8.55;;;5.10;99.90;;;;;;5004669;28;20045;-70
2022/11/25 01:09:56;;;;;;;18.95;8.82;;;5.10;99.90;;;;;;5006105;28;20046;-70
2022/11/25 01:12:22;;;;;;;20.58;8.77;;;5.10;99.90;;;;;;5003020;28;20077;-71
2022/11/25 01:14:48;;;;;;;15.98;8.35;;;5.10;99.90;;;;;;5021080;28;20069;-70
2022/11/25 01:17:15;;;;;;;16.98;8.10;;;5.10;99.90;;;;;;5006758;28;20042;-70
2022/11/25 01:19:41;;;;;;;18.63;9.02;;;5.10;99.90;;;;;;5006627;28;21545;-70
2022/11/25 01:22:07;;;;;;;20.85;9.05;;;5.10;99.90;;;;;;5006172;28;20092;-70
2022/11/25 01:24:33;;;;;;;16.90;8.05;;;5.10;99.90;;;;;;5006156;28;20149;-70
2022/11/25 01:26:58;;;;;;;16.33;8.23;;;5.00;99.90;;;;;;5007098;28;20116;-70
2022/11/25 01:29:26;;;;;;;19.55;9.15;;;5.00;99.90;;;;;;5004720;28;20057;-70
2022/11/25 01:31:55;;;;;;;16.58;8.35;;;5.00;99.90;;;;;;5004190;28;20065;-70
2022/11/25 01:34:23;;;;;;;19.42;8.38;;;5.00;99.90;;;;;;5004632;28;20119;-71
2022/11/25 01:36:48;;;;;;;15.75;8.00;;;4.90;99.90;;;;;;5005036;28;20045;-72
2022/11/25 01:39:19;;;;;;;19.48;10.50;;;4.90;99.90;;;;;;5020739;28;20038;-72
2022/11/25 01:41:46;;;;;;;16.90;9.73;;;4.90;99.90;;;;;;5016716;28;20057;-70
2022/11/25 01:44:24;;;;;;;17.88;9.63;;;4.90;99.90;;;;;;5013107;28;20383;-70
2022/11/25 01:47:00;;;;;;;17.73;9.63;;;4.80;99.90;;;;;;5004991;28;20045;-70
2022/11/25 01:49:39;;;;;;;16.33;9.07;;;4.80;99.90;;;;;;5004521;28;20081;-71
2022/11/25 01:52:42;;;;;;;18.98;8.93;;;4.70;99.90;;;;;;5004238;28;20477;-71
2022/11/25 01:55:28;;;;;;;19.50;8.35;;;4.70;99.90;;;;;;4988789;28;20045;-70
2022/11/25 01:58:08;;;;;;;14.63;8.20;;;4.70;99.90;;;;;;5003275;28;20045;-69
2022/11/25 02:00:34;;;;;;;15.02;6.88;;;4.70;99.90;;;;;;5000080;28;20464;-69
2022/11/25 02:02:59;;;;;;;15.50;7.10;;;4.70;99.90;;;;;;5002656;28;20056;-68
2022/11/25 02:05:39;;;;;;;13.93;6.90;;;4.60;99.90;;;;;;5021467;28;20054;-69
2022/11/25 02:08:05;;;;;;;13.60;6.43;;;4.60;99.90;;;;;;5005144;28;21796;-68
2022/11/25 02:10:31;;;;;;;14.35;6.60;;;4.60;99.90;;;;;;5038128;28;20136;-69
2022/11/25 02:12:57;;;;;;;15.32;7.43;;;4.50;99.90;;;;;;5002895;28;20491;-69
2022/11/25 02:15:23;;;;;;;15.82;6.78;;;4.50;99.90;;;;;;4992318;28;20053;-69
2022/11/25 02:17:49;;;;;;;20.23;7.15;;;4.60;99.90;;;;;;4991369;28;20088;-69
2022/11/25 02:20:19;;;;;;;15.88;6.70;;;4.60;99.90;;;;;;5008532;28;20053;-68
2022/11/25 02:23:03;;;;;;;13.30;7.07;;;4.50;99.90;;;;;;5008331;28;20042;-69
2022/11/25 02:25:33;;;;;;;15.70;6.35;;;4.40;99.90;;;;;;5009924;28;20077;-69
2022/11/25 02:28:10;;;;;;;13.70;6.50;;;4.40;99.90;;;;;;5009238;28;20204;-69
2022/11/25 02:30:36;;;;;;;14.45;5.35;;;4.50;99.90;;;;;;5007602;28;20060;-69
2022/11/25 02:33:02;;;;;;;16.40;6.40;;;4.50;99.90;;;;;;4989395;28;20372;-69
2022/11/25 02:35:30;;;;;;;13.57;6.28;;;4.50;99.90;;;;;;5016595;28;20041;-70
2022/11/25 02:38:02;;;;;;;15.77;5.72;;;4.50;99.90;;;;;;4969559;28;20069;-69
2022/11/25 02:40:28;;;;;;;17.67;5.43;;;4.50;99.90;;;;;;5008661;28;20117;-70
2022/11/25 02:42:53;;;;;;;15.90;5.60;;;4.50;99.90;;;;;;5008564;28;20444;-69
2022/11/25 02:45:21;;;;;;;16.00;5.47;;;4.50;99.90;;;;;;5007799;28;20065;-69
2022/11/25 02:47:47;;;;;;;15.50;5.78;;;4.40;99.90;;;;;;5008519;28;20253;-69
2022/11/25 02:50:12;;;;;;;15.10;5.97;;;4.40;99.90;;;;;;5003962;28;20121;-69
2022/11/25 02:52:38;;;;;;;16.15;5.53;;;4.30;99.90;;;;;;4992040;28;20050;-69
2022/11/25 02:55:04;;;;;;;14.45;5.85;;;4.40;99.90;;;;;;4990967;28;20463;-69
2022/11/25 02:57:30;;;;;;;11.98;6.13;;;4.30;99.90;;;;;;4991777;28;20052;-69
2022/11/25 02:59:56;;;;;;;15.90;5.65;;;4.30;99.90;;;;;;4992105;28;20054;-69
2022/11/25 03:02:22;;;;;;;12.40;5.53;;;4.20;99.90;;;;;;5005690;28;20392;-69
2022/11/25 03:04:47;;;;;;;13.15;6.60;;;4.30;99.90;;;;;;5007531;28;20042;-69
2022/11/25 03:07:13;;;;;;;14.23;5.75;;;4.20;99.90;;;;;;5008630;28;20084;-69
2022/11/25 03:09:39;;;;;;;15.73;6.10;;;4.20;99.90;;;;;;4988882;28;20046;-70
2022/11/25 03:12:20;;;;;;;15.88;6.75;;;4.20;99.90;;;;;;5032922;28;20484;-70
2022/11/25 03:14:46;;;;;;;15.75;6.63;;;4.30;99.90;;;;;;5008036;28;20049;-70
2022/11/25 03:17:12;;;;;;;16.08;5.80;;;4.30;99.90;;;;;;5008307;28;20046;-70
2022/11/25 03:19:38;;;;;;;14.63;6.10;;;4.40;99.90;;;;;;4995683;28;20095;-70
2022/11/25 03:22:04;;;;;;;14.38;5.93;;;4.40;99.90;;;;;;5010610;28;20057;-70
2022/11/25 03:24:31;;;;;;;14.50;5.75;;;4.40;99.90;;;;;;4995182;28;20048;-70
2022/11/25 03:26:56;;;;;;;14.20;5.53;;;4.40;99.90;;;;;;5011692;28;20050;-70
2022/11/25 03:29:22;;;;;;;15.80;5.95;;;4.50;99.90;;;;;;4993851;28;20042;-69
2022/11/25 03:31:48;;;;;;;14.02;5.63;;;4.50;99.90;;;;;;5011598;28;20155;-69
2022/11/25 03:34:13;;;;;;;20.00;5.75;;;4.60;99.90;;;;;;5006365;28;20045;-70
2022/11/25 03:36:39;;;;;;;14.43;6.25;;;4.50;99.90;;;;;;5008381;28;20376;-70
2022/11/25 03:39:05;;;;;;;11.88;5.82;;;4.50;99.90;;;;;;5002764;28;20175;-69
2022/11/25 03:41:30;;;;;;;17.40;6.10;;;4.50;99.90;;;;;;5009865;28;20046;-70
2022/11/25 03:43:56;;;;;;;15.23;6.60;;;4.60;99.90;;;;;;5010021;28;20372;-70
2022/11/25 03:46:22;;;;;;;12.52;5.57;;;4.60;99.90;;;;;;5011413;28;20050;-69
2022/11/25 03:48:48;;;;;;;21.38;6.32;;;4.60;99.90;;;;;;4994724;28;20387;-70
2022/11/25 03:51:13;;;;;;;15.23;6.88;;;4.60;99.90;;;;;;5010593;28;20425;-69
2022/11/25 03:53:39;;;;;;;16.80;6.88;;;4.60;99.90;;;;;;4979251;28;20037;-69
2022/11/25 03:56:05;;;;;;;14.48;6.10;;;4.60;99.90;;;;;;5010962;28;20046;-70
2022/11/25 03:58:31;;;;;;;17.23;7.38;;;4.60;99.90;;;;;;5009247;28;20050;-70
2022/11/25 04:01:00;;;;;;;19.00;7.53;;;4.50;99.90;;;;;;5011302;28;20056;-70
2022/11/25 04:03:27;;;;;;;15.43;6.75;;;4.50;99.90;;;;;;4993145;28;20053;-69
2022/11/25 04:05:52;;;;;;;13.43;6.63;;;4.50;99.90;;;;;;4992145;28;20071;-70
2022/11/25 04:08:18;;;;;;;13.98;6.40;;;4.50;99.90;;;;;;4991981;28;20519;-70
2022/11/25 04:10:44;;;;;;;13.65;6.90;;;4.40;99.90;;;;;;5010328;28;20054;-71
2022/11/25 04:13:09;;;;;;;16.85;6.78;;;4.40;99.90;;;;;;5008310;28;20491;-69
2022/11/25 04:15:35;;;;;;;20.83;8.15;;;4.40;99.90;;;;;;5011281;28;20057;-69
2022/11/25 04:18:01;;;;;;;15.45;8.00;;;4.40;99.90;;;;;;5008568;28;20045;-70
2022/11/25 04:20:27;;;;;;;13.40;7.13;;;4.30;99.90;;;;;;4994605;28;20069;-70
2022/11/25 04:22:52;;;;;;;14.27;7.72;;;4.20;99.90;;;;;;5011064;28;20042;-70
2022/11/25 04:25:18;;;;;;;17.33;7.22;;;4.20;99.90;;;;;;5006701;28;20053;-70
2022/11/25 04:27:44;;;;;;;17.48;6.50;;;4.30;99.90;;;;;;5010603;28;20076;-70
2022/11/25 04:30:10;;;;;;;15.68;6.90;;;4.30;99.90;;;;;;5010773;28;20049;-70
2022/11/25 04:32:37;;;;;;;19.15;6.70;;;4.30;99.90;;;;;;4994074;28;20076;-70
2022/11/25 04:35:03;;;;;;;14.73;6.07;;;4.40;99.90;;;;;;5010364;28;20446;-70
2022/11/25 04:37:29;;;;;;;16.13;6.55;;;4.40;99.90;;;;;;5010299;28;20119;-70
2022/11/25 04:39:54;;;;;;;17.73;7.63;;;4.40;99.90;;;;;;5011016;28;20050;-70
2022/11/25 04:42:33;;;;;;;18.77;7.22;;;4.30;99.90;;;;;;5009174;28;20057;-70
2022/11/25 04:45:17;;;;;;;16.17;7.72;;;4.30;99.90;;;;;;4996273;28;20057;-70
2022/11/25 04:47:43;;;;;;;20.08;7.82;;;4.30;99.90;;;;;;5004429;28;20116;-70
2022/11/25 04:50:12;;;;;;;14.52;6.55;;;4.30;99.90;;;;;;5005703;28;20054;-70
2022/11/25 04:52:38;;;;;;;14.82;7.07;;;4.30;99.90;;;;;;4994097;28;20045;-70
2022/11/25 04:55:04;;;;;;;15.05;5.85;;;4.40;99.90;;;;;;5009324;28;20054;-69
2022/11/25 04:57:30;;;;;;;14.88;5.70;;;4.40;99.90;;;;;;4993435;28;20045;-69
2022/11/25 04:59:56;;;;;;;14.43;6.25;;;4.50;99.90;;;;;;5008522;28;20057;-69
2022/11/25 05:02:23;;;;;;;12.63;5.53;;;4.50;99.90;;;;;;5010559;28;20049;-69
2022/11/25 05:04:51;;;;;;;15.80;6.20;;;4.50;99.90;;;;;;4987828;28;20054;-69
2022/11/25 05:07:18;;;;;;;9.50;5.35;;;4.60;99.90;;;;;;5010289;28;20523;-70
2022/11/25 05:09:44;;;;;;;17.83;6.60;;;4.60;99.90;;;;;;5005636;28;20117;-70
2022/11/25 05:12:16;;;;;;;15.52;5.07;;;4.60;99.90;;;;;;5008697;28;20053;-69
2022/11/25 05:14:42;;;;;;;12.57;5.68;;;4.60;99.90;;;;;;5009444;28;20050;-69
2022/11/25 05:17:11;;;;;;;12.70;5.25;;;4.60;99.90;;;;;;5009606;28;20375;-69
2022/11/25 05:19:37;;;;;;;13.68;5.53;;;4.50;99.90;;;;;;5008038;28;20054;-69
2022/11/25 05:22:03;;;;;;;15.90;6.57;;;4.30;99.90;;;;;;5009737;28;20049;-71
2022/11/25 05:24:28;;;;;;;11.55;5.40;;;4.30;99.90;;;;;;5008573;28;20084;-69
2022/11/25 05:26:54;;;;;;;15.35;6.13;;;4.30;99.90;;;;;;5010600;28;20053;-66
2022/11/25 05:29:20;;;;;;;12.70;4.65;;;4.20;99.90;;;;;;5008897;28;20430;-69
2022/11/25 05:31:45;;;;;;;13.35;5.45;;;4.10;99.90;;;;;;5008517;28;20104;-65
2022/11/25 05:34:11;;;;;;;10.60;5.43;;;4.00;99.90;;;;;;5008782;28;20081;-66
2022/11/25 05:36:37;;;;;;;12.30;5.35;;;3.90;99.90;;;;;;5009023;28;20559;-67
2022/11/25 05:39:03;;;;;;;11.68;5.28;;;3.80;99.90;;;;;;5008336;28;20046;-67
2022/11/25 05:41:28;;;;;;;14.68;5.80;;;3.80;99.90;;;;;;4987776;28;20084;-66
2022/11/25 05:43:54;;;;;;;15.13;5.60;;;3.80;99.90;;;;;;5021365;28;20443;-66
2022/11/25 05:46:20;;;;;;;8.45;4.72;;;3.70;99.90;;;;;;5020727;28;20046;-67
2022/11/25 05:48:46;;;;;;;10.38;5.47;;;3.70;99.90;;;;;;5023920;28;20135;-66
2022/11/25 05:51:11;;;;;;;12.70;5.93;;;3.70;99.90;;;;;;5008447;28;20046;-66
2022/11/25 05:53:37;;;;;;;17.05;6.18;;;3.70;99.90;;;;;;5008745;28;20049;-66
2022/11/25 05:56:05;;;;;;;8.45;4.80;;;3.70;99.90;;;;;;4989454;28;20104;-66
2022/11/25 05:58:31;;;;;;;11.35;5.53;;;3.70;99.90;;;;;;5005059;28;20349;-65
2022/11/25 06:00:57;;;;;;;9.80;5.95;;;3.70;99.90;;;;;;5025006;28;20052;-66
2022/11/25 06:03:29;;;;;;;13.23;5.30;;;3.70;99.90;;;;;;5026226;28;20371;-66
2022/11/25 06:05:56;;;;;;;13.98;6.70;;;3.70;99.90;;;;;;5009538;28;20049;-66
2022/11/25 06:08:22;;;;;;;14.68;5.78;;;3.70;99.90;;;;;;5008840;28;20046;-66
2022/11/25 06:10:47;;;;;;;15.15;5.57;;;3.80;99.90;;;;;;4989215;28;20046;-67
2022/11/25 06:13:13;;;;;;;12.93;5.40;;;3.90;99.90;;;;;;5039002;28;20065;-67
2022/11/25 06:15:40;;;;;;;14.52;5.95;;;3.90;99.90;;;;;;5007810;28;20099;-66
2022/11/25 06:18:06;;;;;;;17.23;6.32;;;3.90;99.90;;;;;;4992399;28;20049;-67
2022/11/25 06:20:31;;;;;;;10.10;5.05;;;4.00;99.90;;;;;;4990005;28;20042;-67
2022/11/25 06:22:57;;;;;;;14.52;5.32;;;4.00;99.90;;;;;;5020167;28;20050;-66
2022/11/25 06:25:24;;;;;;;17.40;6.22;;;4.00;99.90;;;;;;5009809;28;20053;-66
2022/11/25 06:27:50;;;;;;;15.60;5.68;;;4.10;99.90;;;;;;5007811;28;20059;-66
2022/11/25 06:30:15;;;;;;;11.88;5.53;;;4.00;99.90;;;;;;5007862;28;20130;-66
2022/11/25 06:32:41;;;;;;;13.52;5.60;;;4.00;99.90;;;;;;5008330;28;20511;-67
2022/11/25 06:35:07;;;;;;;15.95;5.53;;;4.10;99.90;;;;;;5008786;28;20049;-68
2022/11/25 06:37:33;;;;;;;13.05;5.72;;;4.10;99.90;;;;;;5005842;28;20228;-66
2022/11/25 06:39:59;;;;;;;13.77;5.55;;;4.10;99.90;;;;;;5035385;28;20460;-65
2022/11/25 06:42:25;;;;;;;12.27;4.93;;;4.10;99.90;;;;;;5007840;28;20049;-66
2022/11/25 06:44:50;;;;;;;12.45;5.43;;;4.10;99.90;;;;;;5008490;28;20468;-66
2022/11/25 06:47:16;;;;;;;18.05;5.68;;;4.10;99.90;;;;;;5003410;28;20577;-65
2022/11/25 06:49:42;;;;;;;17.35;6.18;;;4.00;99.90;;;;;;5008333;28;20073;-66
2022/11/25 06:52:07;;;;;;;13.02;5.65;;;4.00;99.90;;;;;;5013736;28;20050;-66
2022/11/25 06:54:33;;;;;;;12.48;4.88;;;3.90;99.90;;;;;;5012395;28;20046;-66
2022/11/25 06:57:00;;;;;;;9.45;4.50;;;4.00;99.90;;;;;;4994355;28;20050;-66
2022/11/25 06:59:28;;;;;;;12.30;4.57;;;4.00;99.90;;;;;;5012215;28;20444;-67
2022/11/25 07:01:55;;;;;;;18.07;5.07;;;4.10;99.90;;;;;;4994985;28;20049;-66
2022/11/25 07:04:21;;;;;;;11.13;4.45;;;4.10;99.90;;;;;;5010653;28;20050;-66
2022/11/25 07:06:49;;;;;;;11.20;4.40;;;4.10;99.90;;;;;;5012638;28;20060;-67
2022/11/25 07:09:15;;;;;;;14.35;4.45;;;4.10;99.90;;;;;;5013244;28;20053;-67
2022/11/25 07:11:41;;;;;;;15.25;4.50;;;4.10;99.90;;;;;;4993562;28;20053;-67
2022/11/25 07:14:11;;;;;;;12.65;4.50;;;4.10;99.90;;;;;;5011832;28;20046;-67
2022/11/25 07:16:38;;;;;;;13.43;4.50;;;4.10;99.90;;;;;;5036687;28;20089;-68
2022/11/25 07:19:03;;;;;;;15.27;4.53;;;4.10;99.90;;;;;;4977778;28;20099;-67
2022/11/25 07:21:30;;;;;;;13.32;4.50;;;4.00;99.90;;;;;;4995850;28;20058;-67
2022/11/25 07:23:57;;;;;;;14.57;4.20;;;4.00;99.90;;;;;;5011033;28;20119;-67
2022/11/25 07:26:25;;;;;;;13.90;4.82;;;4.00;99.90;;;;;;5010364;28;20108;-67
2022/11/25 07:28:52;;;;;;;14.68;4.72;;;4.00;99.90;;;;;;5008040;28;20105;-66
2022/11/25 07:31:26;;;;;;;16.30;4.75;;;4.00;99.90;;;;;;5037311;28;20406;-67
2022/11/25 07:33:56;;;;;;;12.43;4.28;;;4.10;99.90;;;;;;5011172;28;20476;-65
2022/11/25 07:36:22;;;;;;;12.10;4.07;;;4.10;99.90;;;;;;5008395;28;20665;-65
2022/11/25 07:38:48;;;;;;;12.50;3.90;;;4.10;99.90;;;;;;5019721;28;20089;-68
2022/11/25 07:41:19;;;;;;;12.43;4.45;;;4.20;99.90;;;;;;4994155;28;20151;-68
2022/11/25 07:43:46;;;;;;;16.23;5.68;;;4.10;99.90;;;;;;5037293;28;20041;-66
2022/11/25 07:46:20;;;;;;;18.27;5.35;;;4.10;99.90;;;;;;5024062;28;20053;-66
2022/11/25 07:48:46;;;;;;;14.30;5.15;;;4.10;99.90;;;;;;5010447;28;20050;-65
2022/11/25 07:51:17;;;;;;;14.15;5.65;;;4.20;99.90;;;;;;5011292;28;20057;-66
2022/11/25 07:53:43;;;;;;;13.75;6.40;;;4.20;99.90;;;;;;5006566;28;20042;-66
2022/11/25 07:56:09;;;;;;;13.80;5.20;;;4.30;99.90;;;;;;5008709;28;20057;-65
2022/11/25 07:58:34;;;;;;;16.92;6.00;;;4.30;99.90;;;;;;4992829;28;20407;-66
2022/11/25 08:01:04;;;;;;;14.93;5.07;;;4.30;99.90;;;;;;5042076;28;20115;-66
2022/11/25 08:03:36;;;;;;;14.13;5.20;;;4.40;99.90;;;;;;5008908;28;20125;-66
2022/11/25 08:06:03;;;;;;;17.80;6.40;;;4.40;99.90;;;;;;5010624;28;20060;-68
2022/11/25 08:08:29;;;;;;;15.75;4.70;;;4.40;99.90;;;;;;4985934;28;20333;-68
2022/11/25 08:10:54;;;;;;;16.60;5.07;;;4.50;99.90;;;;;;5010381;28;20116;-67
2022/11/25 08:13:20;;;;;;;15.85;5.13;;;4.50;99.90;;;;;;5010012;28;20050;-68
2022/11/25 08:15:46;;;;;;;12.50;5.18;;;4.60;99.90;;;;;;5009710;28;20060;-71
2022/11/25 08:18:12;;;;;;;11.48;5.07;;;4.70;99.90;;;;;;4990645;28;20057;-71
2022/11/25 08:20:37;;;;;;;11.93;4.88;;;4.70;99.90;;;;;;5024380;28;20046;-67
2022/11/25 08:23:03;;;;;;;16.05;5.00;;;4.80;99.90;;;;;;5009985;28;20050;-71
2022/11/25 08:25:30;;;;;;;16.40;5.60;;;4.80;99.90;;;;;;5005034;28;20067;-71
2022/11/25 08:27:58;;;;;;;16.80;6.22;;;4.90;99.90;;;;;;5009888;28;20049;-71
2022/11/25 08:30:24;;;;;;;14.27;6.13;;;4.90;99.90;;;;;;5009900;28;20072;-71
2022/11/25 08:32:50;;;;;;;16.77;5.25;;;4.90;99.90;;;;;;5009400;28;20069;-71
2022/11/25 08:35:16;;;;;;;15.68;5.45;;;5.00;99.90;;;;;;5007907;28;20135;-71
2022/11/25 08:37:42;;;;;;;17.90;5.13;;;5.00;99.90;;;;;;4976041;28;20430;-72
2022/11/25 08:40:09;;;;;;;16.92;4.68;;;5.00;99.90;;;;;;4992245;28;20064;-72
2022/11/25 08:42:35;;;;;;;15.50;4.50;;;5.10;99.90;;;;;;5008576;28;21781;-72
2022/11/25 08:45:01;;;;;;;17.00;4.55;;;5.10;99.90;;;;;;5042989;28;20061;-72
2022/11/25 08:47:27;;;;;;;13.27;4.32;;;5.20;99.90;;;;;;5005464;28;20050;-68
2022/11/25 08:49:53;;;;;;;17.20;4.93;;;5.20;99.90;;;;;;4993492;28;20049;-67
2022/11/25 08:52:19;;;;;;;17.23;4.45;;;5.30;99.90;;;;;;5008778;28;20050;-68
2022/11/25 08:54:45;;;;;;;16.67;4.63;;;5.30;99.90;;;;;;5005658;28;20057;-68
2022/11/25 08:57:10;;;;;;;15.63;4.82;;;5.40;99.90;;;;;;5009891;28;20045;-68
2022/11/25 08:59:37;;;;;;;13.57;4.32;;;5.50;99.90;;;;;;5009263;28;20132;-69
2022/11/25 09:02:04;;;;;;;15.80;4.57;;;5.50;99.90;;;;;;5006322;28;20045;-73
2022/11/25 09:04:30;;;;;;;12.00;3.78;;;5.60;99.90;;;;;;4992797;28;20086;-68
2022/11/25 09:06:55;;;;;;;18.15;5.05;;;5.60;99.90;;;;;;5009029;28;20502;-68
2022/11/25 09:09:21;;;;;;;18.60;4.93;;;5.70;99.90;;;;;;5009716;28;20064;-69
2022/11/25 09:11:48;;;;;;;14.52;4.28;;;5.70;99.90;;;;;;4991519;28;20479;-68
2022/11/25 09:14:15;;;;;;;14.63;4.80;;;5.80;99.90;;;;;;4995121;28;20045;-68
2022/11/25 09:16:41;;;;;;;11.50;3.45;;;5.90;99.90;;;;;;5003838;28;20476;-67
2022/11/25 09:19:07;;;;;;;18.90;4.63;;;5.90;99.90;;;;;;4991239;28;20049;-67
2022/11/25 09:21:35;;;;;;;14.88;4.50;;;5.90;99.90;;;;;;4973793;28;20042;-67
2022/11/25 09:24:02;;;;;;;16.10;4.65;;;5.90;99.90;;;;;;5012450;28;20187;-67
2022/11/25 09:26:30;;;;;;;16.08;4.82;;;6.00;99.90;;;;;;5013330;28;20046;-69
2022/11/25 09:28:56;;;;;;;13.40;3.33;;;6.00;99.90;;;;;;5002869;28;20061;-66
2022/11/25 09:31:22;;;;;;;12.57;3.55;;;6.00;99.90;;;;;;5021698;28;20050;-67
2022/11/25 09:33:48;;;;;;;21.08;4.97;;;6.00;99.90;;;;;;5040713;28;20049;-69
2022/11/25 09:36:22;;;;;;;17.98;4.30;;;6.00;99.90;;;;;;5065523;28;20434;-68
2022/11/25 09:38:50;;;;;;;21.88;4.93;;;6.00;99.90;;;;;;5032740;28;20542;-67
2022/11/25 09:47:51;;;;;;;14.63;3.95;;;6.10;99.90;;;;;;5044160;28;20454;-66
2022/11/25 09:50:48;;;;;;;15.98;4.25;;;6.20;99.90;;;;;;5044767;28;20041;-70
2022/11/25 09:53:33;;;;;;;16.13;4.20;;;6.30;99.90;;;;;;5041232;28;20052;-71
2022/11/25 09:56:02;;;;;;;17.48;4.00;;;6.40;99.90;;;;;;5057540;28;20425;-71
2022/11/25 09:58:43;;;;;;;16.77;4.38;;;6.30;99.90;;;;;;5047722;28;20049;-72
2022/11/25 10:01:17;;;;;;;17.73;4.40;;;6.40;99.90;;;;;;5027143;28;20459;-71
2022/11/25 10:04:02;;;;;;;14.02;3.85;;;6.50;99.90;;;;;;5041960;28;20136;-72
2022/11/25 10:06:30;;;;;;;19.40;4.35;;;6.50;99.90;;;;;;5046176;28;20553;-71
2022/11/25 10:08:58;;;;;;;19.13;4.83;;;6.70;99.90;;;;;;5028513;28;20719;-71
2022/11/25 10:11:35;;;;;;;16.98;4.40;;;6.70;99.90;;;;;;5039755;28;20470;-72
2022/11/25 10:14:13;;;;;;;13.57;3.55;;;6.80;99.90;;;;;;5044349;28;20375;-74
2022/11/25 10:17:31;;;;;;;14.20;4.20;;;6.80;99.90;;;;;;5045165;28;20045;-70
2022/11/25 10:20:20;;;;;;;19.60;4.60;;;6.90;99.90;;;;;;5022354;28;20041;-70
2022/11/25 10:23:01;;;;;;;17.30;4.35;;;6.90;99.90;;;;;;5028636;28;20045;-71
2022/11/25 10:25:32;;;;;;;17.25;4.78;;;7.00;99.90;;;;;;5030141;28;20052;-71
2022/11/25 10:28:02;;;;;;;16.13;5.93;;;7.00;99.90;;;;;;5036840;28;20210;-70
2022/11/25 10:30:50;;;;;;;19.38;5.07;;;7.00;99.90;;;;;;5044426;28;20045;-72
2022/11/25 10:33:24;;;;;;;11.25;4.38;;;7.10;99.90;;;;;;5044976;28;20060;-71
2022/11/25 10:36:05;;;;;;;18.50;5.35;;;7.20;99.90;;;;;;5041133;28;20057;-71
2022/11/25 10:39:35;;;;;;;18.10;4.95;;;7.20;99.90;;;;;;5041280;28;20037;-68
2022/11/25 10:42:19;;;;;;;19.50;6.30;;;7.20;99.90;;;;;;5031434;28;20111;-68
2022/11/25 10:44:44;;;;;;;23.38;7.13;;;7.20;99.90;;;;;;5029565;28;20049;-68
2022/11/25 10:47:19;;;;;;;27.55;7.70;;;7.30;99.90;;;;;;5020058;28;20041;-68
2022/11/25 10:50:22;;;;;;;26.15;7.65;;;7.30;99.90;;;;;;5025932;28;20131;-67
2022/11/25 10:53:23;;;;;;;18.45;6.40;;;7.30;99.90;;;;;;5030189;28;20092;-66
2022/11/25 10:55:57;;;;;;;23.02;5.38;;;7.30;99.90;;;;;;5005846;28;20141;-67
2022/11/25 10:58:37;;;;;;;20.98;4.85;;;7.30;99.90;;;;;;5030477;28;20045;-72
2022/11/25 11:01:14;;;;;;;13.57;4.55;;;7.40;99.90;;;;;;5013866;28;20049;-70
2022/11/25 11:03:44;;;;;;;16.13;5.13;;;7.40;99.90;;;;;;5030607;28;20081;-71
2022/11/25 11:06:31;;;;;;;21.60;5.05;;;7.40;99.90;;;;;;5035495;28;20309;-72
2022/11/25 11:08:57;;;;;;;19.83;4.53;;;7.40;99.90;;;;;;5030563;28;20111;-71
2022/11/25 11:11:23;;;;;;;18.92;4.95;;;7.50;99.90;;;;;;5025131;28;20049;-70
2022/11/25 11:13:52;;;;;;;21.52;5.85;;;7.50;99.90;;;;;;5024999;28;20624;-71
2022/11/25 11:16:34;;;;;;;20.67;5.55;;;7.50;99.90;;;;;;5025475;28;20056;-72
2022/11/25 11:19:00;;;;;;;11.68;4.63;;;7.50;99.90;;;;;;5013470;28;20056;-71
2022/11/25 11:21:31;;;;;;;16.58;4.90;;;7.50;99.90;;;;;;5013130;28;20479;-71
2022/11/25 11:23:58;;;;;;;17.00;5.93;;;7.60;99.90;;;;;;5023160;28;20371;-71
2022/11/25 11:26:28;;;;;;;16.83;5.30;;;7.60;99.90;;;;;;5030144;28;20055;-72
2022/11/25 11:29:20;;;;;;;16.52;3.95;;;7.60;99.90;;;;;;5028969;28;20053;-72
2022/11/25 11:31:54;;;;;;;18.40;3.97;;;7.70;99.90;;;;;;5023382;28;20655;-70
2022/11/25 11:34:23;;;;;;;20.88;5.00;;;7.60;99.90;;;;;;4996918;28;20061;-70
2022/11/25 11:37:13;;;;;;;19.20;5.38;;;7.70;99.90;;;;;;5013043;28;20182;-71
2022/11/25 11:40:02;;;;;;;18.50;4.55;;;7.70;99.90;;;;;;5010500;28;20053;-73
2022/11/25 11:42:36;;;;;;;26.42;5.60;;;7.70;99.90;;;;;;5029374;28;20045;-73
2022/11/25 11:45:23;;;;;;;14.70;4.47;;;7.80;99.90;;;;;;5025894;28;20558;-71
2022/11/25 11:48:16;;;;;;;16.00;5.03;;;7.80;99.90;;;;;;5044091;28;20045;-71
2022/11/25 11:50:47;;;;;;;15.43;3.70;;;7.80;99.90;;;;;;5028809;28;20049;-73
2022/11/25 11:53:25;;;;;;;14.35;4.35;;;7.80;99.90;;;;;;5029796;28;20064;-71
2022/11/25 11:56:16;;;;;;;17.00;4.22;;;7.80;99.90;;;;;;5013222;28;20053;-72
2022/11/25 11:58:56;;;;;;;13.55;3.55;;;7.80;99.90;;;;;;5027842;28;20041;-71
2022/11/25 12:01:37;;;;;;;15.85;4.05;;;7.90;99.90;;;;;;5011248;28;20037;-71
2022/11/25 12:04:28;;;;;;;15.93;4.45;;;7.90;99.90;;;;;;5029454;28;20072;-71
2022/11/25 12:07:29;;;;;;;16.05;4.53;;;7.90;99.90;;;;;;5012161;28;20494;-71
2022/11/25 12:10:14;;;;;;;14.40;3.80;;;7.90;99.90;;;;;;5028911;28;20120;-72
2022/11/25 12:13:00;;;;;;;15.07;3.70;;;7.90;99.90;;;;;;5012868;28;20473;-70
2022/11/25 12:15:40;;;;;;;15.00;4.07;;;8.00;99.90;;;;;;5026919;28;20056;-71
2022/11/25 12:18:11;;;;;;;13.32;4.22;;;7.90;99.90;;;;;;5023638;28;20100;-72
2022/11/25 12:20:46;;;;;;;15.63;3.47;;;8.00;99.90;;;;;;5039969;28;20083;-71
2022/11/25 12:23:17;;;;;;;13.27;3.55;;;8.00;99.90;;;;;;5029036;28;20049;-72
2022/11/25 12:25:43;;;;;;;16.38;3.80;;;8.00;99.90;;;;;;5026863;28;20068;-71
2022/11/25 12:28:23;;;;;;;11.30;3.25;;;8.00;99.90;;;;;;5041027;28;20112;-72
2022/11/25 12:31:01;;;;;;;14.63;3.60;;;8.00;99.90;;;;;;5027786;28;20047;-71
2022/11/25 12:33:35;;;;;;;17.08;4.38;;;8.00;99.90;;;;;;5027992;28;20091;-71
2022/11/25 12:36:10;;;;;;;16.50;4.18;;;8.00;99.90;;;;;;5024238;28;20060;-65
2022/11/25 12:39:11;;;;;;;10.18;3.30;;;8.00;99.90;;;;;;5010841;28;20335;-71
2022/11/25 12:42:00;;;;;;;17.08;5.20;;;8.00;99.90;;;;;;5018395;28;20451;-71
2022/11/25 12:44:48;;;;;;;12.80;3.50;;;8.00;99.90;;;;;;5028576;28;20048;-72
2022/11/25 12:47:14;;;;;;;21.05;6.13;;;8.00;99.90;;;;;;5015919;28;20077;-71
2022/11/25 12:49:44;;;;;;;13.50;3.95;;;8.00;99.90;;;;;;5043747;28;20108;-71
2022/11/25 12:52:10;;;;;;;11.45;2.88;;;8.00;99.90;;;;;;5010887;28;20458;-71
2022/11/25 12:54:57;;;;;;;14.57;3.53;;;8.00;99.90;;;;;;5028561;28;20085;-72
2022/11/25 12:57:45;;;;;;;12.37;3.67;;;8.00;99.90;;;;;;5056635;28;20049;-70
2022/11/25 13:00:36;;;;;;;12.38;2.83;;;8.00;99.90;;;;;;5028645;28;21111;-71
2022/11/25 13:03:33;;;;;;;10.82;2.90;;;8.00;99.90;;;;;;5028268;28;20123;-71
2022/11/25 13:06:21;;;;;;;9.05;3.50;;;8.00;99.90;;;;;;5010270;28;20209;-72
2022/11/25 13:09:01;;;;;;;14.50;3.83;;;7.90;99.90;;;;;;5017847;28;20049;-71
2022/11/25 13:11:49;;;;;;;18.02;3.70;;;7.90;99.90;;;;;;5027562;28;20052;-72
2022/11/25 13:14:46;;;;;;;16.08;3.83;;;7.90;99.90;;;;;;5013893;28;20056;-71